createdAt,value
2023-12-29T00:08:18.533Z,12.10
2023-12-29T00:16:42.970Z,11.50
2023-12-29T00:25:10.268Z,11.10
2023-12-29T00:33:34.996Z,12.10
2023-12-29T00:42:00.073Z,12.60
2023-12-29T00:50:25.518Z,11.00
2023-12-29T00:58:49.351Z,11.90
2023-12-29T01:07:12.870Z,11.90
2023-12-29T01:15:39.352Z,10.00
2023-12-29T01:24:05.275Z,10.50
2023-12-29T01:32:29.844Z,11.80
2023-12-29T01:40:53.853Z,10.30
2023-12-29T01:49:21.535Z,12.00
2023-12-29T01:57:46.827Z,11.60
2023-12-29T02:06:14.106Z,10.00
2023-12-29T02:14:38.716Z,11.30
2023-12-29T02:23:04.507Z,11.30
2023-12-29T02:31:32.088Z,9.50
2023-12-29T02:40:00.309Z,11.90
2023-12-29T02:48:26.670Z,11.00
2023-12-29T02:56:50.703Z,8.30
2023-12-29T03:05:15.504Z,11.10
2023-12-29T03:13:40.173Z,10.20
2023-12-29T03:22:07.144Z,12.00
2023-12-29T03:30:31.424Z,11.20
2023-12-29T03:38:58.341Z,10.60
2023-12-29T03:47:22.254Z,12.30
2023-12-29T03:55:47.093Z,11.80
2023-12-29T04:04:12.141Z,10.10
2023-12-29T04:12:38.332Z,11.80
2023-12-29T04:21:03.575Z,11.90
2023-12-29T04:29:28.780Z,10.90
2023-12-29T04:37:55.253Z,12.00
2023-12-29T04:46:22.693Z,12.30
2023-12-29T04:54:49.626Z,10.80
2023-12-29T05:03:14.269Z,11.70
2023-12-29T05:11:38.608Z,11.90
2023-12-29T05:20:02.487Z,12.00
2023-12-29T05:28:28.400Z,15.10
2023-12-29T05:36:54.426Z,12.00
2023-12-29T05:45:19.086Z,13.00
2023-12-29T05:53:43.863Z,13.80
2023-12-29T06:02:11.380Z,11.90
2023-12-29T06:10:37.538Z,14.10
2023-12-29T06:19:01.458Z,11.90
2023-12-29T06:27:25.893Z,13.40
2023-12-29T06:35:50.029Z,13.00
2023-12-29T06:44:15.789Z,12.90
2023-12-29T06:52:40.078Z,12.60
2023-12-29T07:01:06.088Z,14.20
2023-12-29T07:09:32.433Z,12.60
2023-12-29T07:17:56.128Z,12.40
2023-12-29T07:26:20.168Z,12.00
2023-12-29T07:34:46.324Z,12.10
2023-12-29T07:43:10.073Z,20.10
2023-12-29T07:51:40.040Z,11.70
2023-12-29T08:00:07.511Z,11.80
2023-12-29T08:08:36.642Z,12.50
2023-12-29T08:17:01.520Z,11.40
2023-12-29T08:25:25.658Z,10.80
2023-12-29T08:33:49.931Z,8.70
2023-12-29T08:42:17.758Z,11.00
2023-12-29T08:50:44.255Z,10.80
2023-12-29T08:59:09.619Z,18.50
2023-12-29T09:07:34.950Z,348.40
2023-12-29T09:15:59.789Z,462.30
2023-12-29T09:24:24.172Z,331.60
2023-12-29T09:32:48.864Z,62.70
2023-12-29T09:41:16.493Z,80.20
2023-12-29T09:49:43.684Z,41.80
2023-12-29T09:58:10.188Z,33.30
2023-12-29T10:06:43.058Z,30.30
2023-12-29T10:15:17.347Z,21.70
2023-12-29T10:23:56.127Z,34.60
2023-12-29T10:32:19.736Z,27.30
2023-12-29T10:40:45.172Z,11.90
2023-12-29T10:49:12.368Z,11.90
2023-12-29T10:57:36.967Z,21.10
2023-12-29T11:06:03.461Z,12.00
2023-12-29T11:14:28.861Z,14.50
2023-12-29T11:22:53.191Z,9.00
2023-12-29T11:31:20.232Z,10.60
2023-12-29T11:40:45.750Z,14.50
2023-12-29T11:49:11.858Z,6.60
2023-12-29T11:57:38.248Z,7.80
2023-12-29T12:06:05.504Z,5.80
2023-12-29T12:15:05.473Z,4.40
2023-12-29T12:23:34.907Z,4.40
2023-12-29T12:31:59.312Z,4.80
2023-12-29T12:40:28.996Z,3.50
2023-12-29T12:48:53.714Z,3.40
2023-12-29T12:57:22.020Z,2.90
2023-12-29T13:05:46.255Z,4.30
2023-12-29T13:14:09.715Z,3.60
2023-12-29T13:22:33.439Z,3.70
2023-12-29T13:30:58.581Z,3.90
2023-12-29T13:39:38.289Z,32.70
2023-12-29T13:48:04.501Z,5.50
2023-12-29T13:56:28.876Z,3.60
2023-12-29T14:05:07.237Z,3.20
2023-12-29T14:13:30.864Z,4.70
2023-12-29T14:21:57.134Z,4.40
2023-12-29T14:30:21.776Z,4.20
2023-12-29T14:38:46.449Z,3.50
2023-12-29T14:47:11.469Z,3.30
2023-12-29T14:55:38.643Z,4.80
2023-12-29T15:04:02.587Z,3.90
2023-12-29T15:12:28.473Z,3.90
2023-12-29T15:20:53.114Z,4.20
2023-12-29T15:29:17.118Z,3.70
2023-12-29T15:37:42.153Z,3.90
2023-12-29T15:46:23.709Z,4.40
2023-12-29T15:54:47.396Z,4.10
2023-12-29T16:03:33.318Z,106.00
2023-12-29T16:11:57.778Z,5.00
2023-12-29T16:20:30.574Z,4.30
2023-12-29T16:28:54.152Z,4.20
2023-12-29T16:37:21.369Z,5.00
2023-12-29T16:45:46.702Z,4.60
2023-12-29T16:54:11.524Z,3.90
2023-12-29T17:02:35.830Z,4.30
2023-12-29T17:10:59.802Z,3.80
2023-12-29T17:19:27.443Z,110.20
2023-12-29T17:27:52.740Z,175.20
2023-12-29T17:36:19.547Z,54.70
2023-12-29T17:44:43.649Z,135.00
2023-12-29T17:53:07.588Z,70.90
2023-12-29T18:01:33.720Z,94.00
2023-12-29T18:09:58.320Z,62.30
2023-12-29T18:18:23.242Z,24.70
2023-12-29T18:26:47.517Z,32.20
2023-12-29T18:35:13.526Z,15.40
2023-12-29T18:43:38.508Z,25.80
2023-12-29T18:52:02.723Z,6.30
2023-12-29T19:00:26.625Z,11.60
2023-12-29T19:08:51.395Z,8.40
2023-12-29T19:17:16.112Z,5.60
2023-12-29T19:25:41.356Z,7.70
2023-12-29T19:34:07.874Z,8.10
2023-12-29T19:42:34.375Z,7.60
2023-12-29T19:50:58.632Z,8.30
2023-12-29T19:59:23.950Z,10.90
2023-12-29T20:07:49.022Z,8.70
2023-12-29T20:16:41.877Z,20.50
2023-12-29T20:25:06.517Z,13.40
2023-12-29T20:33:32.758Z,10.00
2023-12-29T20:41:56.593Z,12.00
2023-12-29T20:59:41.135Z,6.10
2023-12-29T21:08:26.549Z,7.90
2023-12-29T21:16:54.106Z,7.00
2023-12-29T21:25:17.859Z,8.60
2023-12-29T21:33:42.018Z,7.40
2023-12-29T21:42:07.222Z,7.00
2023-12-29T21:51:09.524Z,6.30
2023-12-29T21:59:33.982Z,5.60
2023-12-29T22:07:57.775Z,7.80
2023-12-29T22:16:23.825Z,6.50
2023-12-29T22:24:51.057Z,6.90
2023-12-29T22:33:15.644Z,5.60
2023-12-29T22:41:39.675Z,6.50
2023-12-29T22:50:05.528Z,6.10
2023-12-29T22:58:31.182Z,6.30
2023-12-29T23:06:54.844Z,5.10
2023-12-29T23:15:19.219Z,6.70
2023-12-29T23:23:44.734Z,5.10
2023-12-29T23:32:09.708Z,5.30
2023-12-29T23:40:34.885Z,6.40
2023-12-29T23:49:00.348Z,5.10
2023-12-29T23:57:25.015Z,4.80
